Latest Weather Observations for Beaudesert AWS

IDQ60901

Issued at 8:21 pm EST Tuesday 23 October 2018 (issued every 10 minutes, with the page automatically refreshed every 10 minutes)

About weather observations | Map of Brisbane area stations | Latest observations for Brisbane area | Other Formats
Station Details ID: 040983 Name: BEAUDESERT DRUMLEY STREET Lat: -27.97 Lon: 152.99 Height: 47.81 m
Data from the previous 72 hours. | See also: Recent months at Beaudesert AWS
Date/Time
EST
Temp
°C
App
Temp
°C
Dew
Point
°C
Rel
Hum
%
Delta-T
°C
Wind Press
QNH
hPa
Press
MSL
hPa
Rain since
9am
mm
Dir  Spd
km/h
Gust
km/h
Spd
kts
Gust
kts
23/08:00pm 21.6 23.7 18.2 81 2.1 NNE 4 7 2 4 1016.1 1016.0 0.0
23/07:30pm 21.9 23.9 17.9 78 2.5 NNE 4 7 2 4 1015.8 1015.7 0.0
23/07:00pm 22.4 24.1 18.0 76 2.7 NNE 6 9 3 5 1015.3 1015.2 0.0
23/06:30pm 23.0 24.7 18.1 74 3.1 NNE 6 11 3 6 1014.8 1014.7 0.0
23/06:00pm 23.6 24.7 18.0 71 3.5 NE 9 15 5 8 1014.3 1014.2 0.0
23/05:30pm 24.8 26.0 18.3 67 4.1 NE 9 20 5 11 1013.9 1013.8 0.0
23/05:00pm 25.7 26.5 18.1 63 4.8 NE 11 20 6 11 1013.6 1013.5 0.0
23/04:30pm 26.4 26.7 18.0 60 5.3 NE 13 20 7 11 1013.1 1013.0 0.0
23/04:00pm 27.9 28.6 18.9 58 5.8 NE 13 20 7 11 1012.8 1012.6 0.0
23/03:30pm 28.4 28.6 18.5 55 6.4 ENE 15 26 8 14 1012.6 1012.4 0.0
23/03:00pm 29.4 28.8 14.7 40 8.9 N 11 22 6 12 1012.6 1012.4 0.0
23/02:30pm 30.3 31.1 16.3 42 8.8 WSW 7 13 4 7 1012.8 1012.6 0.0
23/02:00pm 29.8 30.7 15.1 40 9.0 WSW 4 7 2 4 1013.2 1013.1 0.0
23/01:30pm 29.5 30.2 15.6 43 8.6 WNW 6 9 3 5 1013.8 1013.7 0.0
23/01:00pm 28.9 29.3 15.4 44 8.3 W 7 9 4 5 1014.3 1014.2 0.0
23/12:30pm 28.2 28.7 15.1 44 8.0 WSW 6 11 3 6 1014.7 1014.6 0.0
23/12:00pm 27.6 29.0 15.3 47 7.5 WSW 2 7 1 4 1015.3 1015.2 0.0
23/11:30am 27.4 28.5 15.7 48 7.2 W 4 11 2 6 1015.9 1015.8 0.0
23/11:00am 26.2 27.2 16.4 54 6.0 WSW 6 11 3 6 1016.4 1016.3 0.0
23/10:30am 25.9 26.8 16.7 57 5.7 W 7 13 4 7 1016.7 1016.6 0.0
23/10:00am 24.8 25.8 16.8 61 4.9 WSW 7 9 4 5 1017.1 1017.0 0.0
23/09:30am 24.4 25.7 17.1 63 4.5 W 6 9 3 5 1017.3 1017.2 0.0
23/09:00am 24.0 25.6 16.8 64 4.4 SW 4 7 2 4 1017.5 1017.4 0.2
23/08:30am 23.3 25.1 17.5 70 3.6 SW 4 6 2 3 1017.6 1017.5 0.2
23/08:00am 21.3 23.0 17.1 77 2.6 SW 4 7 2 4 1017.7 1017.6 0.2
23/07:30am 20.1 21.4 17.1 83 1.8 SE 6 7 3 4 1017.7 1017.6 0.2
23/07:00am 19.1 21.5 17.1 88 1.2 CALM 0 0 0 0 1017.4 1017.3 0.2
23/06:30am 16.8 18.8 16.0 95 0.5 CALM 0 0 0 0 1017.4 1017.3 0.2
23/06:00am 16.2 18.2 16.0 99 0.1 CALM 0 0 0 0 1017.1 1017.0 0.2
23/05:30am 13.8 14.9 13.6 99 0.1 CALM 0 0 0 0 1016.5 1016.4 0.2
23/05:00am 13.6 14.7 13.4 99 0.1 CALM 0 0 0 0 1016.2 1016.1 0.2
23/04:30am 13.9 15.1 13.7 99 0.1 CALM 0 0 0 0 1015.9 1015.8 0.2
23/04:00am 14.0 15.1 13.5 97 0.3 CALM 0 0 0 0 1015.8 1015.7 0.2
23/03:30am 13.9 15.0 13.4 97 0.3 CALM 0 0 0 0 1015.6 1015.5 0.2
23/03:00am 14.7 15.8 14.5 99 0.1 ESE 2 4 1 2 1015.5 1015.4 0.2
23/02:30am 14.6 16.0 14.3 98 0.2 CALM 0 0 0 0 1015.6 1015.5 0.2
23/02:00am 15.1 16.7 14.8 98 0.2 CALM 0 0 0 0 1015.8 1015.7 0.2
23/01:30am 15.4 17.1 15.1 98 0.2 CALM 0 0 0 0 1016.0 1015.9 0.2
23/01:00am 15.4 17.0 14.8 96 0.3 CALM 0 0 0 0 1016.3 1016.2 0.2
23/12:30am 15.8 17.5 15.3 97 0.3 CALM 0 0 0 0 1016.3 1016.2 0.2
23/12:00am 16.0 17.8 15.4 96 0.3 CALM 0 0 0 0 1016.6 1016.5 0.2
 
Date/Time
EST
Temp
°C
App
Temp
°C
Dew
Point
°C
Rel
Hum
%
Delta-T
°C
Wind Press
QNH
hPa
Press
MSL
hPa
Rain since
9am
mm
Dir  Spd
km/h
Gust
km/h
Spd
kts
Gust
kts
22/11:30pm 16.3 18.1 15.5 95 0.5 CALM 0 0 0 0 1016.8 1016.7 0.2
22/11:00pm 16.8 18.7 15.8 94 0.6 CALM 0 0 0 0 1016.9 1016.8 0.2
22/10:30pm 17.3 19.0 16.3 94 0.6 ESE 2 2 1 1 1017.0 1016.9 0.2
22/10:00pm 17.5 19.4 15.8 90 1.0 CALM 0 0 0 0 1016.9 1016.8 0.2
22/09:30pm 18.6 20.8 16.6 88 1.2 CALM 0 0 0 0 1016.9 1016.8 0.2
22/09:00pm 18.9 21.3 16.9 88 1.2 CALM 0 0 0 0 1016.9 1016.8 0.2
22/08:30pm 19.9 22.4 17.3 85 1.6 CALM 0 0 0 0 1016.6 1016.5 0.2
22/08:00pm 20.6 - - - - ESE 2 4 1 2 1016.2 1016.1 0.2
22/07:30pm - - - - - ENE 2 4 1 2 1016.1 1016.0 0.2
22/07:00pm - - - - - CALM 0 2 0 1 1015.6 1015.5 0.2
22/06:30pm - - - - - E 2 9 1 5 1015.2 1015.1 0.2
22/06:00pm - - - - - ENE 11 17 6 9 1014.7 1014.6 0.2
22/05:30pm - - - - - ENE 7 15 4 8 1014.3 1014.2 0.2
22/05:00pm - - - - - NE 7 17 4 9 1013.9 1013.8 0.2
22/04:30pm - - - - - ENE 11 22 6 12 1013.5 1013.4 0.2
22/04:00pm - - - - - ENE 15 22 8 12 1013.3 1013.2 0.2
22/03:30pm 28.4 - - - - W 6 9 3 5 1013.0 1012.9 0.2
22/03:00pm 27.7 - - - - ENE 6 13 3 7 1013.2 1013.1 0.2
22/02:30pm 27.1 - - - - ESE 6 11 3 6 1013.3 1013.2 0.2
22/02:00pm 27.0 27.6 15.4 49 7.1 SSE 6 9 3 5 1013.5 1013.4 0.2
22/01:30pm 27.3 28.3 16.3 51 6.8 ESE 6 15 3 8 1013.8 1013.7 0.2
22/01:00pm 26.5 28.3 16.4 53 6.2 ESE 2 6 1 3 1014.2 1014.1 0.2
22/12:30pm 26.3 26.7 16.3 54 6.2 S 9 15 5 8 1014.6 1014.5 0.2
22/12:00pm 25.9 - - - - SW 11 19 6 10 1015.0 1014.9 0.2
22/11:30am 26.7 - - - - SW 11 20 6 11 1015.2 1015.1 0.2
22/11:00am 25.2 - - - - SW 7 11 4 6 1015.7 1015.6 0.2
22/10:30am 25.4 - - - - SSW 9 17 5 9 1016.0 1015.9 0.2
22/10:00am 24.8 - - - - S 11 19 6 10 1016.3 1016.2 0.2
22/09:30am 24.0 - - - - SSW 13 20 7 11 1016.4 1016.3 0.0
22/09:00am 23.5 - - - - SSW 15 22 8 12 1016.4 1016.3 9.6
22/08:30am 22.5 - - - - SSW 4 6 2 3 1016.5 1016.4 9.6
22/08:00am 20.8 - - - - CALM 0 6 0 3 1016.5 1016.4 9.6
22/07:30am 19.0 21.2 16.4 85 1.6 CALM 0 0 0 0 1016.4 1016.3 9.6
22/07:00am 17.8 20.1 16.7 93 0.7 CALM 0 2 0 1 1016.2 1016.1 9.6
22/06:30am 16.4 18.5 16.2 99 0.1 CALM 0 2 0 1 1016.1 1016.0 9.6
22/06:00am 15.0 16.6 14.8 99 0.1 CALM 0 0 0 0 1015.9 1015.8 9.6
22/05:30am - - - - - CALM 0 0 0 0 1015.6 1015.5 9.6
22/05:00am 13.6 14.7 13.4 99 0.1 CALM 0 0 0 0 1015.1 1015.0 9.6
22/04:30am 13.7 14.8 13.5 99 0.1 CALM 0 2 0 1 1014.8 1014.7 9.6
22/04:00am 14.3 15.2 14.1 99 0.1 SW 2 4 1 2 1014.3 1014.2 9.6
22/03:30am 14.5 15.1 14.3 99 0.1 SW 4 6 2 3 1014.2 1014.1 9.6
22/03:00am 14.4 15.0 14.2 99 0.1 SW 4 4 2 2 1014.1 1014.0 9.6
22/02:30am 14.6 16.0 14.4 99 0.1 CALM 0 0 0 0 1014.1 1014.0 9.4
22/02:00am - - - - - SW 4 6 2 3 1014.2 1014.1 9.4
22/01:30am 15.2 16.4 15.0 99 0.1 SW 2 4 1 2 1014.3 1014.2 9.4
22/01:00am 15.0 16.2 14.8 99 0.1 SW 2 6 1 3 1014.6 1014.5 9.4
22/12:30am 15.5 16.9 15.3 99 0.1 SW 2 6 1 3 1014.9 1014.8 9.4
22/12:00am 15.9 17.8 15.7 99 0.1 CALM 0 4 0 2 1015.0 1014.9 9.4
 
Date/Time
EST
Temp
°C
App
Temp
°C
Dew
Point
°C
Rel
Hum
%
Delta-T
°C
Wind Press
QNH
hPa
Press
MSL
hPa
Rain since
9am
mm
Dir  Spd
km/h
Gust
km/h
Spd
kts
Gust
kts
21/11:30pm 15.9 17.4 15.7 99 0.1 SW 2 6 1 3 1015.7 1015.6 9.4
21/11:00pm 15.8 17.6 15.5 98 0.2 CALM 0 0 0 0 1016.0 1015.9 9.4
21/10:30pm 16.4 18.5 16.2 99 0.1 CALM 0 2 0 1 1015.7 1015.6 9.4
21/10:00pm 16.2 17.8 15.9 98 0.2 SW 2 4 1 2 1015.5 1015.4 9.4
21/09:30pm 16.6 18.0 16.4 99 0.1 SW 4 6 2 3 1015.2 1015.1 9.4
21/09:00pm 16.6 18.7 16.3 98 0.2 CALM 0 2 0 1 1015.5 1015.4 9.4
21/08:30pm 16.8 19.0 16.5 98 0.2 CALM 0 0 0 0 1015.7 1015.6 9.4
21/08:00pm 16.9 19.1 16.4 97 0.3 CALM 0 0 0 0 1015.2 1015.1 9.4
21/07:30pm 17.1 18.5 16.5 96 0.4 SW 4 6 2 3 1014.9 1014.8 9.4
21/07:00pm 17.6 19.8 16.6 94 0.6 CALM 0 0 0 0 1014.3 1014.2 9.4
21/06:30pm 18.2 20.1 16.7 91 0.9 SW 2 4 1 2 1013.5 1013.4 9.4
21/06:00pm 18.8 20.7 16.8 88 1.2 SW 2 6 1 3 1013.1 1013.0 9.2
21/05:30pm 19.0 21.1 17.1 89 1.2 SSW 2 6 1 3 1012.9 1012.7 9.2
21/05:00pm 18.4 20.5 17.2 93 0.7 SSW 2 4 1 2 1012.8 1012.6 9.2
21/04:30pm 17.9 18.5 16.8 93 0.7 S 9 13 5 7 1012.6 1012.4 9.2
21/04:00pm 18.1 17.6 16.8 92 0.8 ENE 15 24 8 13 1011.9 1011.7 8.2
21/03:30pm 18.5 18.5 17.3 93 0.7 NNE 13 19 7 10 1013.2 1013.1 7.4
21/03:00pm 19.4 20.9 18.1 92 0.8 SSE 7 17 4 9 1012.7 1012.5 7.4
21/02:30pm 20.3 21.1 18.1 87 1.4 SE 11 22 6 12 1011.5 1011.3 3.2
21/02:00pm 22.5 24.0 18.9 80 2.3 WNW 9 19 5 10 1011.3 1011.1 1.2
21/01:30pm 26.2 27.5 17.6 59 5.4 NE 7 11 4 6 1011.1 1010.9 0.2
21/01:00pm 28.1 29.7 17.9 54 6.5 NE 6 13 3 7 1011.6 1011.4 0.2
21/12:30pm 26.8 28.6 17.3 56 6.0 ESE 4 7 2 4 1012.7 1012.5 0.2
21/12:00pm 26.2 27.8 17.0 57 5.7 ESE 4 9 2 5 1013.5 1013.4 0.2
21/11:30am 26.6 28.5 17.7 58 5.6 WSW 4 6 2 3 1013.9 1013.8 0.2
21/11:00am 25.7 28.3 17.4 60 5.2 CALM 0 4 0 2 1014.4 1014.3 0.2
21/10:30am 24.6 26.0 16.3 60 5.1 W 4 7 2 4 1014.9 1014.8 0.2
21/10:00am 24.4 26.5 18.1 68 4.0 SSW 4 11 2 6 1015.1 1015.0 0.2
21/09:30am 23.1 25.1 17.8 72 3.3 SSW 4 7 2 4 1015.3 1015.2 0.2
21/09:00am 22.4 24.2 17.3 73 3.1 ESE 4 7 2 4 1015.5 1015.4 6.2
21/08:30am 21.4 23.4 17.8 80 2.2 ESE 4 6 2 3 1015.5 1015.4 6.2
21/08:00am 20.5 23.3 17.9 85 1.6 CALM 0 0 0 0 1015.2 1015.1 6.2
21/07:30am 20.1 22.6 18.1 88 1.2 NNE 2 4 1 2 1015.3 1015.2 6.2
21/07:00am 19.8 22.0 18.3 91 0.9 NW 4 9 2 5 1015.1 1015.0 6.2
21/06:30am 19.1 20.7 18.3 95 0.5 N 7 11 4 6 1015.0 1014.9 6.2
21/06:00am 18.5 20.1 17.9 96 0.4 NNW 6 9 3 5 1014.3 1014.2 6.2
21/05:30am 18.7 19.8 17.9 95 0.5 WNW 9 19 5 10 1013.2 1013.1 6.2
21/05:00am 18.8 20.8 17.8 94 0.6 S 4 6 2 3 1012.3 1012.1 6.2
21/04:37am 18.9 18.8 17.9 94 0.6 ESE 15 37 8 20 1012.8 1012.6 6.2
21/04:30am 18.7 17.0 18.0 96 0.4 E 24 37 13 20 1010.8 1010.6 6.2
21/04:24am 18.4 18.3 17.9 97 0.3 SE 15 28 8 15 1011.6 1011.4 6.2
21/04:00am 18.4 19.5 18.1 98 0.2 S 9 13 5 7 1013.6 1013.5 5.4
21/03:30am 18.7 20.5 18.2 97 0.3 S 6 7 3 4 1014.3 1014.2 2.8
21/03:00am 18.8 21.5 17.8 94 0.6 CALM 0 0 0 0 1014.7 1014.6 0.0
21/02:30am 18.7 21.5 17.9 95 0.5 CALM 0 0 0 0 1015.0 1014.9 0.0
21/02:00am 18.5 19.9 17.7 95 0.5 SW 7 13 4 7 1015.2 1015.1 0.0
21/01:30am 18.6 20.4 17.3 92 0.8 NE 4 6 2 3 1014.8 1014.7 0.0
21/01:00am 18.5 20.6 17.2 92 0.8 E 2 4 1 2 1015.1 1015.0 0.0
21/12:30am 18.1 20.5 17.1 94 0.6 CALM 0 0 0 0 1015.5 1015.4 0.0
21/12:00am 17.7 20.0 16.7 94 0.6 CALM 0 0 0 0 1015.9 1015.8 0.0
 
Date/Time
EST
Temp
°C
App
Temp
°C
Dew
Point
°C
Rel
Hum
%
Delta-T
°C
Wind Press
QNH
hPa
Press
MSL
hPa
Rain since
9am
mm
Dir  Spd
km/h
Gust
km/h
Spd
kts
Gust
kts
20/11:30pm 17.7 19.9 16.6 93 0.7 CALM 0 0 0 0 1015.3 1015.2 0.0
20/11:00pm 17.9 20.1 16.4 91 0.9 CALM 0 2 0 1 1015.5 1015.4 0.0
20/10:30pm 18.2 20.5 16.7 91 0.9 CALM 0 2 0 1 1015.4 1015.3 0.0
20/10:00pm 18.9 20.9 16.9 88 1.2 NE 2 4 1 2 1015.2 1015.1 0.0
20/09:30pm 19.1 21.3 16.5 85 1.6 CALM 0 0 0 0 1015.6 1015.5 0.0
20/09:00pm 19.7 21.3 16.9 84 1.7 NE 4 6 2 3 1015.7 1015.6 0.0
20/08:30pm 19.9 21.8 16.7 82 1.9 ENE 2 4 1 2 1015.9 1015.8 0.0

Latest Capital City Observations: Canberra | Sydney | Melbourne | Brisbane | Adelaide | Perth | Hobart | Darwin

Other Formats:

Comma delimited format used in spreadsheet applications
http://www.bom.gov.au/fwo/IDQ60901/IDQ60901.95575.axf

JavaScript Object Notation format (JSON) in row-major order
http://www.bom.gov.au/fwo/IDQ60901/IDQ60901.95575.json